Palmer, AK

9:01 PM AKST on December 28, 2014 (GMT -0900)
Birchwood | Change Station
CLOSE
Current Station
Airport
Location: Birchwood,
Elevation: 95 ft
Nearby Weather Stations

Elev 95 ft 61.42 °N, 149.51 °W | Updated 5 minutes ago

Overcast
Overcast
25 °F
Feels Like 18 °F
N
6
Wind Variable Wind from SW

Today
High -- | Low -- °F
--% Chance of Precip.
Yesterday
High -- | Low -- °F
Precip. -- in
10:16 AM 3:39 PM
First Quarter, 55% visible
Pressure 30.41 in
Visibility 10.0 miles
Clouds Few 5000 ft
Scattered Clouds 7000 ft
Overcast 11000 ft
Windchill 18 °F
Dew Point 25 °F
Humidity 100%
Rainfall 0.00 in
Snow Depth Not available.
UV 0 out of 12
Pollen Not available.
Air Quality Not available.
Flu Activity Not available.
METAR PABV 290556Z AUTO 23005KT 10SM FEW050 SCT070 OVC110 M04/M04 A3041 RMK AO1 11040 21050 57007

More Conditions Fewer Conditions

Pressure 30.41 in
Visibility 10.0 miles
Clouds Few 5000 ft
Scattered Clouds 7000 ft
Overcast 11000 ft
Windchill 18 °F
Dew Point 25 °F
Humidity 100%
Rainfall 0.00 in
Snow Depth Not available.
UV 0 out of 12
Pollen Not available.
Air Quality Not available.
Flu Activity Not available.
METAR PABV 290556Z AUTO 23005KT 10SM FEW050 SCT070 OVC110 M04/M04 A3041 RMK AO1 11040 21050 57007

More Conditions Fewer Conditions

10-Day Weather Forecast

Almanac

Astronomy

Dec. 28, 2014 Rise Set
Actual Time
Civil Twilight
Nautical Twilight
Astronomical Twilight
Moon
Length of Visible Light
Length of Day
Tomorrow will be .
, % of the Moon is Illuminated

Today's Extremes

State Highs State Lows

Community

WunderPhotos

Upload Photos

1,781,544 photos uploaded!

WunderBlogs® & News

Nearby

Air Quality

  Air Quality AQ Index Pollutant
Not available.

Snow Depth

Station Depth Elevation

Earthquake Activity

City Distance Mag. Time & Date
Minimum magnitude displayed is 2.5.

Coastal Water Temperatures

Place Temperature

Nearby Weather Stations